sensor_id;sensor_type;location;lat;lon;timestamp;P1;durP1;ratioP1;P2;durP2;ratioP2
48034;SDS011;33812;46.480;6.834;2024-02-14T00:00:52;1173.40;;;138.57;;
48034;SDS011;33812;46.480;6.834;2024-02-14T00:04:55;1999.90;;;195.82;;
48034;SDS011;33812;46.480;6.834;2024-02-14T00:08:57;1319.00;;;166.15;;
48034;SDS011;33812;46.480;6.834;2024-02-14T00:12:58;521.13;;;60.45;;
48034;SDS011;33812;46.480;6.834;2024-02-14T00:17:00;1999.90;;;385.80;;
48034;SDS011;33812;46.480;6.834;2024-02-14T00:21:03;1930.88;;;197.73;;
48034;SDS011;33812;46.480;6.834;2024-02-14T00:25:05;1999.90;;;230.30;;
48034;SDS011;33812;46.480;6.834;2024-02-14T00:29:09;630.47;;;90.25;;
48034;SDS011;33812;46.480;6.834;2024-02-14T00:33:10;1844.70;;;208.77;;
48034;SDS011;33812;46.480;6.834;2024-02-14T00:37:13;1038.22;;;111.35;;
48034;SDS011;33812;46.480;6.834;2024-02-14T00:41:15;1488.40;;;160.82;;
48034;SDS011;33812;46.480;6.834;2024-02-14T00:45:17;496.17;;;32.00;;
48034;SDS011;33812;46.480;6.834;2024-02-14T00:49:19;17.27;;;14.60;;
48034;SDS011;33812;46.480;6.834;2024-02-14T00:53:22;1332.32;;;157.13;;
48034;SDS011;33812;46.480;6.834;2024-02-14T00:57:24;622.35;;;87.15;;
48034;SDS011;33812;46.480;6.834;2024-02-14T01:01:26;575.65;;;117.70;;
48034;SDS011;33812;46.480;6.834;2024-02-14T01:05:28;1645.18;;;173.32;;
48034;SDS011;33812;46.480;6.834;2024-02-14T01:09:32;1463.10;;;161.05;;
48034;SDS011;33812;46.480;6.834;2024-02-14T01:13:34;1292.35;;;162.90;;
48034;SDS011;33812;46.480;6.834;2024-02-14T01:17:36;740.75;;;56.42;;
48034;SDS011;33812;46.480;6.834;2024-02-14T01:21:38;1447.13;;;148.65;;
48034;SDS011;33812;46.480;6.834;2024-02-14T01:25:41;1455.25;;;158.93;;
48034;SDS011;33812;46.480;6.834;2024-02-14T01:29:43;652.65;;;57.53;;
48034;SDS011;33812;46.480;6.834;2024-02-14T01:33:45;1543.35;;;137.48;;
48034;SDS011;33812;46.480;6.834;2024-02-14T01:37:47;1027.57;;;105.35;;
48034;SDS011;33812;46.480;6.834;2024-02-14T01:41:50;1599.72;;;220.77;;
48034;SDS011;33812;46.480;6.834;2024-02-14T01:45:52;368.73;;;43.92;;
48034;SDS011;33812;46.480;6.834;2024-02-14T01:49:53;1999.90;;;200.40;;
48034;SDS011;33812;46.480;6.834;2024-02-14T01:53:56;1845.13;;;191.65;;
48034;SDS011;33812;46.480;6.834;2024-02-14T01:57:59;638.50;;;88.40;;
48034;SDS011;33812;46.480;6.834;2024-02-14T02:02:01;4.75;;;2.83;;
48034;SDS011;33812;46.480;6.834;2024-02-14T02:06:03;657.10;;;100.35;;
48034;SDS011;33812;46.480;6.834;2024-02-14T02:10:07;803.20;;;105.68;;
48034;SDS011;33812;46.480;6.834;2024-02-14T02:14:10;956.08;;;96.95;;
48034;SDS011;33812;46.480;6.834;2024-02-14T02:18:12;1996.65;;;216.20;;
48034;SDS011;33812;46.480;6.834;2024-02-14T02:22:15;1751.28;;;193.57;;
48034;SDS011;33812;46.480;6.834;2024-02-14T02:26:18;577.85;;;72.28;;
48034;SDS011;33812;46.480;6.834;2024-02-14T02:30:20;1214.85;;;155.23;;
48034;SDS011;33812;46.480;6.834;2024-02-14T02:34:21;1999.90;;;287.63;;
48034;SDS011;33812;46.480;6.834;2024-02-14T02:38:23;735.15;;;108.82;;
48034;SDS011;33812;46.480;6.834;2024-02-14T02:42:26;1685.55;;;191.00;;
48034;SDS011;33812;46.480;6.834;2024-02-14T02:46:29;1026.28;;;106.80;;
48034;SDS011;33812;46.480;6.834;2024-02-14T02:50:30;768.72;;;85.30;;
48034;SDS011;33812;46.480;6.834;2024-02-14T02:54:32;1407.20;;;136.95;;
48034;SDS011;33812;46.480;6.834;2024-02-14T02:58:35;630.72;;;80.30;;
48034;SDS011;33812;46.480;6.834;2024-02-14T03:02:39;2.38;;;1.20;;
48034;SDS011;33812;46.480;6.834;2024-02-14T03:06:44;1636.85;;;151.35;;
48034;SDS011;33812;46.480;6.834;2024-02-14T03:10:46;709.40;;;117.93;;
48034;SDS011;33812;46.480;6.834;2024-02-14T03:14:49;460.08;;;54.40;;
48034;SDS011;33812;46.480;6.834;2024-02-14T03:18:50;920.75;;;89.68;;
48034;SDS011;33812;46.480;6.834;2024-02-14T03:22:53;1999.90;;;342.92;;
48034;SDS011;33812;46.480;6.834;2024-02-14T03:26:55;971.72;;;78.18;;
48034;SDS011;33812;46.480;6.834;2024-02-14T03:30:58;1526.18;;;185.38;;
48034;SDS011;33812;46.480;6.834;2024-02-14T03:35:00;1924.82;;;181.45;;
48034;SDS011;33812;46.480;6.834;2024-02-14T03:39:02;664.28;;;78.03;;
48034;SDS011;33812;46.480;6.834;2024-02-14T03:43:05;1445.40;;;131.55;;
48034;SDS011;33812;46.480;6.834;2024-02-14T03:47:13;703.22;;;93.65;;
48034;SDS011;33812;46.480;6.834;2024-02-14T03:51:15;499.55;;;54.08;;
48034;SDS011;33812;46.480;6.834;2024-02-14T03:55:17;873.28;;;97.30;;
48034;SDS011;33812;46.480;6.834;2024-02-14T03:59:19;992.20;;;152.38;;
48034;SDS011;33812;46.480;6.834;2024-02-14T04:03:25;1667.63;;;175.70;;
48034;SDS011;33812;46.480;6.834;2024-02-14T04:07:29;380.48;;;83.28;;
48034;SDS011;33812;46.480;6.834;2024-02-14T04:11:31;1177.15;;;87.22;;
48034;SDS011;33812;46.480;6.834;2024-02-14T04:15:32;303.83;;;26.08;;
48034;SDS011;33812;46.480;6.834;2024-02-14T04:19:36;1212.75;;;82.90;;
48034;SDS011;33812;46.480;6.834;2024-02-14T04:23:38;707.90;;;96.80;;
48034;SDS011;33812;46.480;6.834;2024-02-14T04:27:40;381.73;;;69.32;;
48034;SDS011;33812;46.480;6.834;2024-02-14T04:31:42;343.40;;;41.53;;
48034;SDS011;33812;46.480;6.834;2024-02-14T04:35:45;541.67;;;44.45;;
48034;SDS011;33812;46.480;6.834;2024-02-14T04:39:47;726.45;;;89.65;;
48034;SDS011;33812;46.480;6.834;2024-02-14T04:43:49;624.35;;;85.57;;
48034;SDS011;33812;46.480;6.834;2024-02-14T04:47:50;12.98;;;6.80;;
48034;SDS011;33812;46.480;6.834;2024-02-14T04:51:54;441.50;;;52.10;;
48034;SDS011;33812;46.480;6.834;2024-02-14T04:55:56;885.03;;;106.07;;
48034;SDS011;33812;46.480;6.834;2024-02-14T04:59:57;947.22;;;116.43;;
48034;SDS011;33812;46.480;6.834;2024-02-14T05:03:59;158.52;;;35.97;;
48034;SDS011;33812;46.480;6.834;2024-02-14T05:08:02;486.20;;;61.90;;
48034;SDS011;33812;46.480;6.834;2024-02-14T05:12:05;6.00;;;5.40;;
48034;SDS011;33812;46.480;6.834;2024-02-14T05:16:10;658.50;;;82.95;;
48034;SDS011;33812;46.480;6.834;2024-02-14T05:20:12;861.20;;;86.03;;
48034;SDS011;33812;46.480;6.834;2024-02-14T05:24:15;1999.90;;;217.65;;
48034;SDS011;33812;46.480;6.834;2024-02-14T05:28:17;500.58;;;36.60;;
48034;SDS011;33812;46.480;6.834;2024-02-14T05:32:19;1479.53;;;162.98;;
48034;SDS011;33812;46.480;6.834;2024-02-14T05:36:20;1183.70;;;135.35;;
48034;SDS011;33812;46.480;6.834;2024-02-14T05:40:27;1584.43;;;154.18;;
48034;SDS011;33812;46.480;6.834;2024-02-14T05:44:28;662.67;;;64.78;;
48034;SDS011;33812;46.480;6.834;2024-02-14T05:48:30;500.95;;;61.28;;
48034;SDS011;33812;46.480;6.834;2024-02-14T05:52:32;88.32;;;16.83;;
48034;SDS011;33812;46.480;6.834;2024-02-14T05:56:35;524.42;;;98.43;;
48034;SDS011;33812;46.480;6.834;2024-02-14T06:00:37;44.67;;;12.73;;
48034;SDS011;33812;46.480;6.834;2024-02-14T06:04:39;175.05;;;14.35;;
48034;SDS011;33812;46.480;6.834;2024-02-14T06:08:42;3.45;;;0.88;;
48034;SDS011;33812;46.480;6.834;2024-02-14T06:12:46;1.95;;;1.38;;
48034;SDS011;33812;46.480;6.834;2024-02-14T06:16:48;237.23;;;30.77;;
48034;SDS011;33812;46.480;6.834;2024-02-14T06:20:49;1411.60;;;169.55;;
48034;SDS011;33812;46.480;6.834;2024-02-14T06:24:51;144.80;;;18.52;;
48034;SDS011;33812;46.480;6.834;2024-02-14T06:28:54;716.25;;;80.80;;
48034;SDS011;33812;46.480;6.834;2024-02-14T06:32:56;8.82;;;1.83;;
48034;SDS011;33812;46.480;6.834;2024-02-14T06:37:00;1911.60;;;216.63;;
48034;SDS011;33812;46.480;6.834;2024-02-14T06:41:02;168.18;;;30.60;;
48034;SDS011;33812;46.480;6.834;2024-02-14T06:45:06;833.38;;;86.85;;
48034;SDS011;33812;46.480;6.834;2024-02-14T06:49:08;57.70;;;24.15;;
48034;SDS011;33812;46.480;6.834;2024-02-14T06:53:12;6.95;;;2.30;;
48034;SDS011;33812;46.480;6.834;2024-02-14T06:57:14;4.38;;;1.63;;
48034;SDS011;33812;46.480;6.834;2024-02-14T07:01:17;622.55;;;78.25;;
48034;SDS011;33812;46.480;6.834;2024-02-14T07:05:22;136.32;;;29.15;;
48034;SDS011;33812;46.480;6.834;2024-02-14T07:09:25;1792.63;;;172.48;;
48034;SDS011;33812;46.480;6.834;2024-02-14T07:13:26;58.25;;;39.47;;
48034;SDS011;33812;46.480;6.834;2024-02-14T07:17:31;147.90;;;37.95;;
48034;SDS011;33812;46.480;6.834;2024-02-14T07:21:36;2.92;;;2.20;;
48034;SDS011;33812;46.480;6.834;2024-02-14T07:25:39;339.75;;;21.52;;
48034;SDS011;33812;46.480;6.834;2024-02-14T07:29:40;666.88;;;109.65;;
48034;SDS011;33812;46.480;6.834;2024-02-14T07:33:44;60.60;;;25.73;;
48034;SDS011;33812;46.480;6.834;2024-02-14T07:37:46;2.67;;;0.80;;
48034;SDS011;33812;46.480;6.834;2024-02-14T07:41:48;2.05;;;1.33;;
48034;SDS011;33812;46.480;6.834;2024-02-14T07:45:50;1569.50;;;216.00;;
48034;SDS011;33812;46.480;6.834;2024-02-14T07:49:53;1999.90;;;763.00;;
48034;SDS011;33812;46.480;6.834;2024-02-14T07:53:55;1999.90;;;480.80;;
48034;SDS011;33812;46.480;6.834;2024-02-14T07:57:57;2.03;;;1.10;;
48034;SDS011;33812;46.480;6.834;2024-02-14T08:02:00;4.57;;;0.80;;
48034;SDS011;33812;46.480;6.834;2024-02-14T08:06:04;5.20;;;0.80;;
48034;SDS011;33812;46.480;6.834;2024-02-14T08:10:06;1.95;;;0.90;;
48034;SDS011;33812;46.480;6.834;2024-02-14T08:14:09;2.72;;;0.90;;
48034;SDS011;33812;46.480;6.834;2024-02-14T08:18:11;5.55;;;0.90;;
48034;SDS011;33812;46.480;6.834;2024-02-14T08:22:14;9.32;;;0.77;;
48034;SDS011;33812;46.480;6.834;2024-02-14T08:26:16;1.60;;;0.77;;
48034;SDS011;33812;46.480;6.834;2024-02-14T08:30:18;2.15;;;0.60;;
48034;SDS011;33812;46.480;6.834;2024-02-14T08:34:20;1.77;;;0.88;;
48034;SDS011;33812;46.480;6.834;2024-02-14T08:38:23;10.00;;;1.02;;
48034;SDS011;33812;46.480;6.834;2024-02-14T08:42:25;1.77;;;0.80;;
48034;SDS011;33812;46.480;6.834;2024-02-14T08:46:27;2.50;;;0.80;;
48034;SDS011;33812;46.480;6.834;2024-02-14T08:50:29;7.28;;;0.70;;
48034;SDS011;33812;46.480;6.834;2024-02-14T08:54:33;3.42;;;0.88;;
48034;SDS011;33812;46.480;6.834;2024-02-14T08:58:34;2.50;;;1.10;;
48034;SDS011;33812;46.480;6.834;2024-02-14T09:02:36;1.45;;;0.80;;
48034;SDS011;33812;46.480;6.834;2024-02-14T09:06:38;3.33;;;0.93;;
48034;SDS011;33812;46.480;6.834;2024-02-14T09:10:42;5.05;;;0.93;;
48034;SDS011;33812;46.480;6.834;2024-02-14T09:14:46;0.82;;;0.60;;
48034;SDS011;33812;46.480;6.834;2024-02-14T09:18:47;3.63;;;0.85;;
48034;SDS011;33812;46.480;6.834;2024-02-14T09:22:49;1.40;;;0.80;;
48034;SDS011;33812;46.480;6.834;2024-02-14T09:26:52;0.75;;;0.60;;
48034;SDS011;33812;46.480;6.834;2024-02-14T09:30:54;1.25;;;0.80;;
48034;SDS011;33812;46.480;6.834;2024-02-14T09:34:55;1.08;;;0.60;;
48034;SDS011;33812;46.480;6.834;2024-02-14T09:38:59;2.47;;;0.70;;
48034;SDS011;33812;46.480;6.834;2024-02-14T09:43:03;1.15;;;0.60;;
48034;SDS011;33812;46.480;6.834;2024-02-14T09:47:09;1.95;;;0.60;;
48034;SDS011;33812;46.480;6.834;2024-02-14T09:51:11;1.63;;;0.80;;
48034;SDS011;33812;46.480;6.834;2024-02-14T09:55:14;1.42;;;0.85;;
48034;SDS011;33812;46.480;6.834;2024-02-14T09:59:18;2.20;;;0.90;;
48034;SDS011;33812;46.480;6.834;2024-02-14T10:03:20;1.88;;;0.70;;
48034;SDS011;33812;46.480;6.834;2024-02-14T10:07:22;1.77;;;0.80;;
48034;SDS011;33812;46.480;6.834;2024-02-14T10:11:24;1.45;;;0.70;;
48034;SDS011;33812;46.480;6.834;2024-02-14T10:15:28;1.60;;;0.70;;
48034;SDS011;33812;46.480;6.834;2024-02-14T10:19:30;1.95;;;0.70;;
48034;SDS011;33812;46.480;6.834;2024-02-14T10:23:32;1.13;;;0.57;;
48034;SDS011;33812;46.480;6.834;2024-02-14T10:27:35;0.82;;;0.68;;
48034;SDS011;33812;46.480;6.834;2024-02-14T10:31:41;0.85;;;0.57;;
48034;SDS011;33812;46.480;6.834;2024-02-14T10:35:43;1.40;;;0.75;;
48034;SDS011;33812;46.480;6.834;2024-02-14T10:39:46;0.60;;;0.50;;
48034;SDS011;33812;46.480;6.834;2024-02-14T10:43:51;1.40;;;0.70;;
48034;SDS011;33812;46.480;6.834;2024-02-14T10:47:54;1.30;;;0.82;;
48034;SDS011;33812;46.480;6.834;2024-02-14T10:51:59;2.63;;;1.13;;
48034;SDS011;33812;46.480;6.834;2024-02-14T10:56:05;0.63;;;0.63;;
48034;SDS011;33812;46.480;6.834;2024-02-14T11:00:08;1.23;;;0.80;;
48034;SDS011;33812;46.480;6.834;2024-02-14T11:04:15;0.80;;;0.60;;
48034;SDS011;33812;46.480;6.834;2024-02-14T11:08:18;0.83;;;0.70;;
48034;SDS011;33812;46.480;6.834;2024-02-14T11:12:22;3.20;;;0.70;;
48034;SDS011;33812;46.480;6.834;2024-02-14T11:16:25;1.15;;;0.68;;
48034;SDS011;33812;46.480;6.834;2024-02-14T11:20:32;1.10;;;0.60;;
48034;SDS011;33812;46.480;6.834;2024-02-14T11:24:36;0.90;;;0.70;;
48034;SDS011;33812;46.480;6.834;2024-02-14T11:28:38;1.45;;;0.90;;
48034;SDS011;33812;46.480;6.834;2024-02-14T11:32:42;0.75;;;0.57;;
48034;SDS011;33812;46.480;6.834;2024-02-14T11:36:45;1.48;;;0.60;;
48034;SDS011;33812;46.480;6.834;2024-02-14T11:40:47;0.82;;;0.60;;
48034;SDS011;33812;46.480;6.834;2024-02-14T11:44:49;1.50;;;0.60;;
48034;SDS011;33812;46.480;6.834;2024-02-14T11:48:51;4.32;;;0.60;;
48034;SDS011;33812;46.480;6.834;2024-02-14T11:52:55;2.50;;;0.80;;
48034;SDS011;33812;46.480;6.834;2024-02-14T11:56:57;2.03;;;0.73;;
48034;SDS011;33812;46.480;6.834;2024-02-14T12:00:59;1.45;;;0.90;;
48034;SDS011;33812;46.480;6.834;2024-02-14T12:05:06;1.67;;;0.98;;
48034;SDS011;33812;46.480;6.834;2024-02-14T12:09:10;2.35;;;0.60;;
48034;SDS011;33812;46.480;6.834;2024-02-14T12:13:14;2.15;;;0.73;;
48034;SDS011;33812;46.480;6.834;2024-02-14T12:17:19;4.00;;;0.98;;
48034;SDS011;33812;46.480;6.834;2024-02-14T12:21:21;2.95;;;1.05;;
48034;SDS011;33812;46.480;6.834;2024-02-14T12:25:46;3.63;;;0.90;;
48034;SDS011;33812;46.480;6.834;2024-02-14T12:29:48;1.63;;;1.00;;
48034;SDS011;33812;46.480;6.834;2024-02-14T12:33:57;2.00;;;0.88;;
48034;SDS011;33812;46.480;6.834;2024-02-14T12:38:01;3.15;;;0.90;;
48034;SDS011;33812;46.480;6.834;2024-02-14T12:42:10;4.57;;;1.00;;
48034;SDS011;33812;46.480;6.834;2024-02-14T12:46:12;4.20;;;0.70;;
48034;SDS011;33812;46.480;6.834;2024-02-14T12:50:14;4.32;;;0.88;;
48034;SDS011;33812;46.480;6.834;2024-02-14T12:54:16;2.63;;;0.70;;
48034;SDS011;33812;46.480;6.834;2024-02-14T12:58:19;2.50;;;0.82;;
48034;SDS011;33812;46.480;6.834;2024-02-14T13:02:21;4.38;;;0.70;;
48034;SDS011;33812;46.480;6.834;2024-02-14T13:06:22;0.65;;;0.50;;
48034;SDS011;33812;46.480;6.834;2024-02-14T13:10:24;2.10;;;0.93;;
48034;SDS011;33812;46.480;6.834;2024-02-14T13:14:28;3.33;;;0.75;;
48034;SDS011;33812;46.480;6.834;2024-02-14T13:18:32;1.15;;;0.90;;
48034;SDS011;33812;46.480;6.834;2024-02-14T13:22:35;1.55;;;0.70;;
48034;SDS011;33812;46.480;6.834;2024-02-14T13:26:37;2.45;;;0.80;;
48034;SDS011;33812;46.480;6.834;2024-02-14T13:30:40;2.72;;;1.30;;
48034;SDS011;33812;46.480;6.834;2024-02-14T13:34:42;3.33;;;1.10;;
48034;SDS011;33812;46.480;6.834;2024-02-14T13:38:44;1.92;;;0.77;;
48034;SDS011;33812;46.480;6.834;2024-02-14T13:42:46;1.15;;;0.88;;
48034;SDS011;33812;46.480;6.834;2024-02-14T13:46:49;1.55;;;1.00;;
48034;SDS011;33812;46.480;6.834;2024-02-14T13:50:53;1.17;;;0.85;;
48034;SDS011;33812;46.480;6.834;2024-02-14T13:54:55;1.98;;;1.00;;
48034;SDS011;33812;46.480;6.834;2024-02-14T13:58:56;2.10;;;0.77;;
48034;SDS011;33812;46.480;6.834;2024-02-14T14:03:00;1.67;;;0.98;;
48034;SDS011;33812;46.480;6.834;2024-02-14T14:07:02;4.28;;;1.00;;
48034;SDS011;33812;46.480;6.834;2024-02-14T14:11:04;1.52;;;1.00;;
48034;SDS011;33812;46.480;6.834;2024-02-14T14:15:08;4.55;;;1.02;;
48034;SDS011;33812;46.480;6.834;2024-02-14T14:19:11;1.30;;;0.70;;
48034;SDS011;33812;46.480;6.834;2024-02-14T14:23:13;1.45;;;0.68;;
48034;SDS011;33812;46.480;6.834;2024-02-14T14:27:16;1.55;;;0.82;;
48034;SDS011;33812;46.480;6.834;2024-02-14T14:31:19;1.23;;;0.68;;
48034;SDS011;33812;46.480;6.834;2024-02-14T14:35:23;1.55;;;0.80;;
48034;SDS011;33812;46.480;6.834;2024-02-14T14:39:24;4.43;;;1.42;;
48034;SDS011;33812;46.480;6.834;2024-02-14T14:43:27;1.33;;;0.85;;
48034;SDS011;33812;46.480;6.834;2024-02-14T14:47:29;1.75;;;1.00;;
48034;SDS011;33812;46.480;6.834;2024-02-14T14:51:32;1.02;;;0.80;;
48034;SDS011;33812;46.480;6.834;2024-02-14T14:55:50;1.83;;;0.88;;
48034;SDS011;33812;46.480;6.834;2024-02-14T14:59:55;1.08;;;0.80;;
48034;SDS011;33812;46.480;6.834;2024-02-14T15:03:57;3.75;;;0.80;;
48034;SDS011;33812;46.480;6.834;2024-02-14T15:08:01;2.35;;;1.13;;
48034;SDS011;33812;46.480;6.834;2024-02-14T15:12:03;1.70;;;0.80;;
48034;SDS011;33812;46.480;6.834;2024-02-14T15:16:06;1.13;;;0.73;;
48034;SDS011;33812;46.480;6.834;2024-02-14T15:20:09;1.15;;;0.70;;
48034;SDS011;33812;46.480;6.834;2024-02-14T15:24:13;3.65;;;0.88;;
48034;SDS011;33812;46.480;6.834;2024-02-14T15:28:15;1.65;;;0.90;;
48034;SDS011;33812;46.480;6.834;2024-02-14T15:32:25;1.70;;;0.98;;
48034;SDS011;33812;46.480;6.834;2024-02-14T15:36:47;6.25;;;0.90;;
48034;SDS011;33812;46.480;6.834;2024-02-14T15:40:57;2.00;;;0.82;;
48034;SDS011;33812;46.480;6.834;2024-02-14T15:45:03;7.95;;;0.93;;
48034;SDS011;33812;46.480;6.834;2024-02-14T15:49:06;8.15;;;1.10;;
48034;SDS011;33812;46.480;6.834;2024-02-14T15:53:11;3.60;;;1.08;;
48034;SDS011;33812;46.480;6.834;2024-02-14T15:57:14;5.95;;;1.60;;
48034;SDS011;33812;46.480;6.834;2024-02-14T16:01:16;6.85;;;1.25;;
48034;SDS011;33812;46.480;6.834;2024-02-14T16:05:18;5.32;;;1.10;;
48034;SDS011;33812;46.480;6.834;2024-02-14T16:09:20;1.92;;;1.10;;
48034;SDS011;33812;46.480;6.834;2024-02-14T16:13:23;2.00;;;0.90;;
48034;SDS011;33812;46.480;6.834;2024-02-14T16:17:25;2.67;;;0.90;;
48034;SDS011;33812;46.480;6.834;2024-02-14T16:21:27;7.63;;;1.17;;
48034;SDS011;33812;46.480;6.834;2024-02-14T16:25:29;4.00;;;1.90;;
48034;SDS011;33812;46.480;6.834;2024-02-14T16:29:34;3.40;;;1.30;;
48034;SDS011;33812;46.480;6.834;2024-02-14T16:33:38;6.40;;;1.40;;
48034;SDS011;33812;46.480;6.834;2024-02-14T16:37:40;3.38;;;1.10;;
48034;SDS011;33812;46.480;6.834;2024-02-14T16:41:42;5.70;;;1.05;;
48034;SDS011;33812;46.480;6.834;2024-02-14T16:45:45;2.90;;;1.13;;
48034;SDS011;33812;46.480;6.834;2024-02-14T16:49:47;5.43;;;0.93;;
48034;SDS011;33812;46.480;6.834;2024-02-14T16:53:49;11.57;;;2.35;;
48034;SDS011;33812;46.480;6.834;2024-02-14T16:57:52;4.60;;;3.13;;
48034;SDS011;33812;46.480;6.834;2024-02-14T17:01:55;5.03;;;2.67;;
48034;SDS011;33812;46.480;6.834;2024-02-14T17:05:58;4.13;;;2.42;;
48034;SDS011;33812;46.480;6.834;2024-02-14T17:10:01;4.82;;;2.13;;
48034;SDS011;33812;46.480;6.834;2024-02-14T17:14:05;3.27;;;1.90;;
48034;SDS011;33812;46.480;6.834;2024-02-14T17:18:11;6.13;;;2.38;;
48034;SDS011;33812;46.480;6.834;2024-02-14T17:22:13;5.05;;;1.98;;
48034;SDS011;33812;46.480;6.834;2024-02-14T17:26:15;3.13;;;1.92;;
48034;SDS011;33812;46.480;6.834;2024-02-14T17:30:17;3.53;;;1.83;;
48034;SDS011;33812;46.480;6.834;2024-02-14T17:34:21;3.75;;;1.90;;
48034;SDS011;33812;46.480;6.834;2024-02-14T17:38:24;2.80;;;2.10;;
48034;SDS011;33812;46.480;6.834;2024-02-14T17:42:27;7.15;;;2.20;;
48034;SDS011;33812;46.480;6.834;2024-02-14T17:46:29;3.55;;;2.13;;
48034;SDS011;33812;46.480;6.834;2024-02-14T17:50:32;4.10;;;1.70;;
48034;SDS011;33812;46.480;6.834;2024-02-14T17:54:34;1.88;;;1.50;;
48034;SDS011;33812;46.480;6.834;2024-02-14T17:58:37;5.25;;;1.80;;
48034;SDS011;33812;46.480;6.834;2024-02-14T18:02:40;7.93;;;2.13;;
48034;SDS011;33812;46.480;6.834;2024-02-14T18:06:44;3.65;;;1.60;;
48034;SDS011;33812;46.480;6.834;2024-02-14T18:10:46;5.20;;;1.73;;
48034;SDS011;33812;46.480;6.834;2024-02-14T18:14:48;6.13;;;1.60;;
48034;SDS011;33812;46.480;6.834;2024-02-14T18:18:49;13.07;;;1.88;;
48034;SDS011;33812;46.480;6.834;2024-02-14T18:22:53;18.23;;;2.78;;
48034;SDS011;33812;46.480;6.834;2024-02-14T18:26:54;12.13;;;2.20;;
48034;SDS011;33812;46.480;6.834;2024-02-14T18:30:56;12.20;;;2.30;;
48034;SDS011;33812;46.480;6.834;2024-02-14T18:34:59;6.90;;;1.95;;
48034;SDS011;33812;46.480;6.834;2024-02-14T18:39:02;10.55;;;2.10;;
48034;SDS011;33812;46.480;6.834;2024-02-14T18:43:04;14.05;;;2.47;;
48034;SDS011;33812;46.480;6.834;2024-02-14T18:47:06;7.78;;;2.80;;
48034;SDS011;33812;46.480;6.834;2024-02-14T18:51:08;5.57;;;2.05;;
48034;SDS011;33812;46.480;6.834;2024-02-14T18:55:16;11.10;;;2.05;;
48034;SDS011;33812;46.480;6.834;2024-02-14T18:59:18;6.88;;;2.33;;
48034;SDS011;33812;46.480;6.834;2024-02-14T19:03:21;7.47;;;3.13;;
48034;SDS011;33812;46.480;6.834;2024-02-14T19:07:23;10.38;;;2.53;;
48034;SDS011;33812;46.480;6.834;2024-02-14T19:11:27;5.18;;;1.98;;
48034;SDS011;33812;46.480;6.834;2024-02-14T19:15:31;12.73;;;2.28;;
48034;SDS011;33812;46.480;6.834;2024-02-14T19:19:33;8.70;;;2.20;;
48034;SDS011;33812;46.480;6.834;2024-02-14T19:23:35;6.03;;;2.28;;
48034;SDS011;33812;46.480;6.834;2024-02-14T19:27:40;13.05;;;2.10;;
48034;SDS011;33812;46.480;6.834;2024-02-14T19:31:42;11.00;;;2.00;;
48034;SDS011;33812;46.480;6.834;2024-02-14T19:35:43;4.88;;;1.90;;
48034;SDS011;33812;46.480;6.834;2024-02-14T19:39:45;3.22;;;1.48;;
48034;SDS011;33812;46.480;6.834;2024-02-14T19:43:48;12.43;;;1.80;;
48034;SDS011;33812;46.480;6.834;2024-02-14T19:47:50;9.25;;;1.98;;
48034;SDS011;33812;46.480;6.834;2024-02-14T19:51:52;7.85;;;1.77;;
48034;SDS011;33812;46.480;6.834;2024-02-14T19:55:55;20.05;;;2.08;;
48034;SDS011;33812;46.480;6.834;2024-02-14T19:59:59;10.18;;;2.03;;
48034;SDS011;33812;46.480;6.834;2024-02-14T20:04:01;10.18;;;2.20;;
48034;SDS011;33812;46.480;6.834;2024-02-14T20:08:04;10.75;;;2.20;;
48034;SDS011;33812;46.480;6.834;2024-02-14T20:12:07;5.60;;;1.70;;
48034;SDS011;33812;46.480;6.834;2024-02-14T20:16:11;7.10;;;2.20;;
48034;SDS011;33812;46.480;6.834;2024-02-14T20:20:13;4.53;;;2.00;;
48034;SDS011;33812;46.480;6.834;2024-02-14T20:24:15;5.80;;;1.75;;
48034;SDS011;33812;46.480;6.834;2024-02-14T20:28:17;6.18;;;1.73;;
48034;SDS011;33812;46.480;6.834;2024-02-14T20:32:22;6.40;;;1.52;;
48034;SDS011;33812;46.480;6.834;2024-02-14T20:36:24;4.20;;;1.73;;
48034;SDS011;33812;46.480;6.834;2024-02-14T20:40:26;5.72;;;1.60;;
48034;SDS011;33812;46.480;6.834;2024-02-14T20:44:31;3.88;;;1.80;;
48034;SDS011;33812;46.480;6.834;2024-02-14T20:48:34;3.05;;;1.60;;
48034;SDS011;33812;46.480;6.834;2024-02-14T20:52:36;3.10;;;1.50;;
48034;SDS011;33812;46.480;6.834;2024-02-14T20:56:38;5.80;;;1.50;;
48034;SDS011;33812;46.480;6.834;2024-02-14T21:00:40;3.00;;;1.55;;
48034;SDS011;33812;46.480;6.834;2024-02-14T21:04:44;3.92;;;1.40;;
48034;SDS011;33812;46.480;6.834;2024-02-14T21:08:46;2.72;;;1.70;;
48034;SDS011;33812;46.480;6.834;2024-02-14T21:12:48;3.15;;;1.52;;
48034;SDS011;33812;46.480;6.834;2024-02-14T21:16:49;5.00;;;1.50;;
48034;SDS011;33812;46.480;6.834;2024-02-14T21:20:53;3.70;;;1.45;;
48034;SDS011;33812;46.480;6.834;2024-02-14T21:24:54;5.22;;;1.33;;
48034;SDS011;33812;46.480;6.834;2024-02-14T21:28:56;6.97;;;1.48;;
48034;SDS011;33812;46.480;6.834;2024-02-14T21:32:58;5.15;;;1.20;;
48034;SDS011;33812;46.480;6.834;2024-02-14T21:37:02;3.38;;;1.40;;
48034;SDS011;33812;46.480;6.834;2024-02-14T21:41:04;2.42;;;1.40;;
48034;SDS011;33812;46.480;6.834;2024-02-14T21:45:06;1.88;;;0.93;;
48034;SDS011;33812;46.480;6.834;2024-02-14T21:49:08;3.15;;;1.20;;
48034;SDS011;33812;46.480;6.834;2024-02-14T21:53:15;2.63;;;1.20;;
48034;SDS011;33812;46.480;6.834;2024-02-14T21:57:18;4.13;;;1.10;;
48034;SDS011;33812;46.480;6.834;2024-02-14T22:01:20;1.95;;;1.08;;
48034;SDS011;33812;46.480;6.834;2024-02-14T22:05:22;4.80;;;1.33;;
48034;SDS011;33812;46.480;6.834;2024-02-14T22:09:25;2.50;;;1.30;;
48034;SDS011;33812;46.480;6.834;2024-02-14T22:13:27;1.80;;;1.08;;
48034;SDS011;33812;46.480;6.834;2024-02-14T22:17:30;1.73;;;0.90;;
48034;SDS011;33812;46.480;6.834;2024-02-14T22:21:34;1.67;;;1.20;;
48034;SDS011;33812;46.480;6.834;2024-02-14T22:25:38;1.85;;;1.00;;
48034;SDS011;33812;46.480;6.834;2024-02-14T22:29:40;3.67;;;1.30;;
48034;SDS011;33812;46.480;6.834;2024-02-14T22:33:42;2.95;;;1.20;;
48034;SDS011;33812;46.480;6.834;2024-02-14T22:37:43;3.78;;;1.00;;
48034;SDS011;33812;46.480;6.834;2024-02-14T22:41:47;2.28;;;1.30;;
48034;SDS011;33812;46.480;6.834;2024-02-14T22:45:49;1.17;;;0.90;;
48034;SDS011;33812;46.480;6.834;2024-02-14T22:49:50;1.50;;;1.10;;
48034;SDS011;33812;46.480;6.834;2024-02-14T22:53:52;1.95;;;0.90;;
48034;SDS011;33812;46.480;6.834;2024-02-14T22:57:55;3.30;;;1.10;;
48034;SDS011;33812;46.480;6.834;2024-02-14T23:01:57;1.17;;;1.08;;
48034;SDS011;33812;46.480;6.834;2024-02-14T23:05:59;3.10;;;1.45;;
48034;SDS011;33812;46.480;6.834;2024-02-14T23:10:01;1.60;;;1.02;;
48034;SDS011;33812;46.480;6.834;2024-02-14T23:14:05;4.13;;;1.08;;
48034;SDS011;33812;46.480;6.834;2024-02-14T23:18:08;1.85;;;1.17;;
48034;SDS011;33812;46.480;6.834;2024-02-14T23:22:10;4.68;;;1.30;;
48034;SDS011;33812;46.480;6.834;2024-02-14T23:26:13;1.55;;;1.10;;
48034;SDS011;33812;46.480;6.834;2024-02-14T23:30:16;2.60;;;0.98;;
48034;SDS011;33812;46.480;6.834;2024-02-14T23:34:18;3.58;;;0.88;;
48034;SDS011;33812;46.480;6.834;2024-02-14T23:38:20;1.48;;;0.98;;
48034;SDS011;33812;46.480;6.834;2024-02-14T23:42:22;4.57;;;1.20;;
48034;SDS011;33812;46.480;6.834;2024-02-14T23:46:26;1.75;;;1.00;;
48034;SDS011;33812;46.480;6.834;2024-02-14T23:50:28;1.92;;;1.00;;
48034;SDS011;33812;46.480;6.834;2024-02-14T23:54:30;1.75;;;0.77;;